createdAt,value
2019-04-07T00:01:27.408Z,99.90
2019-04-07T00:03:55.890Z,99.90
2019-04-07T00:06:24.222Z,99.90
2019-04-07T00:08:51.999Z,99.90
2019-04-07T00:11:19.589Z,99.90
2019-04-07T00:13:46.930Z,99.90
2019-04-07T00:16:14.562Z,99.90
2019-04-07T00:18:43.057Z,99.90
2019-04-07T00:21:10.434Z,99.90
2019-04-07T00:23:38.913Z,99.90
2019-04-07T00:26:06.443Z,99.90
2019-04-07T00:28:34.040Z,99.90
2019-04-07T00:31:01.929Z,99.90
2019-04-07T00:33:29.708Z,99.90
2019-04-07T00:35:57.207Z,99.90
2019-04-07T00:38:24.835Z,99.90
2019-04-07T00:40:52.511Z,99.90
2019-04-07T00:43:20.883Z,99.90
2019-04-07T00:45:48.472Z,99.90
2019-04-07T00:48:15.968Z,99.90
2019-04-07T00:50:43.584Z,99.90
2019-04-07T00:53:11.007Z,99.90
2019-04-07T00:55:38.745Z,99.90
2019-04-07T00:58:06.305Z,99.90
2019-04-07T01:00:34.765Z,99.90
2019-04-07T01:03:02.217Z,99.90
2019-04-07T01:05:37.903Z,99.90
2019-04-07T01:07:59.191Z,99.90
2019-04-07T01:10:27.276Z,99.90
2019-04-07T01:12:55.572Z,99.90
2019-04-07T01:15:23.054Z,99.90
2019-04-07T01:17:50.582Z,99.90
2019-04-07T01:20:17.912Z,99.90
2019-04-07T01:22:46.207Z,99.90
2019-04-07T01:25:13.871Z,99.90
2019-04-07T01:27:41.395Z,99.90
2019-04-07T01:30:08.686Z,99.90
2019-04-07T01:32:35.862Z,99.90
2019-04-07T01:35:03.183Z,99.90
2019-04-07T01:37:30.784Z,99.90
2019-04-07T01:39:58.218Z,99.90
2019-04-07T01:42:36.958Z,99.90
2019-04-07T01:45:31.862Z,99.90
2019-04-07T01:48:19.299Z,99.90
2019-04-07T01:51:21.566Z,99.90
2019-04-07T01:54:06.557Z,99.90
2019-04-07T01:56:44.889Z,99.90
2019-04-07T01:59:27.419Z,99.90
2019-04-07T02:02:11.454Z,99.90
2019-04-07T02:04:57.959Z,99.90
2019-04-07T02:07:32.577Z,99.90
2019-04-07T02:10:11.047Z,99.90
2019-04-07T02:12:49.889Z,99.90
2019-04-07T02:15:26.812Z,99.90
2019-04-07T02:18:02.383Z,99.90
2019-04-07T02:20:56.718Z,99.90
2019-04-07T02:23:43.667Z,99.90
2019-04-07T02:26:34.376Z,99.90
2019-04-07T02:29:19.438Z,99.90
2019-04-07T02:32:06.521Z,99.90
2019-04-07T02:34:38.890Z,99.90
2019-04-07T02:37:31.329Z,99.90
2019-04-07T02:40:13.764Z,99.90
2019-04-07T02:42:46.160Z,99.90
2019-04-07T02:45:36.633Z,99.90
2019-04-07T02:48:26.558Z,99.90
2019-04-07T02:51:16.007Z,99.90
2019-04-07T02:54:00.951Z,99.90
2019-04-07T02:56:54.282Z,99.90
2019-04-07T02:59:34.209Z,99.90
2019-04-07T03:02:23.855Z,99.90
2019-04-07T03:05:16.656Z,99.90
2019-04-07T03:08:10.277Z,99.90
2019-04-07T03:11:09.649Z,99.90
2019-04-07T03:14:14.770Z,99.90
2019-04-07T03:17:02.355Z,99.90
2019-04-07T03:19:41.459Z,99.90
2019-04-07T03:22:26.971Z,99.90
2019-04-07T03:25:20.650Z,99.90
2019-04-07T03:27:59.188Z,99.90
2019-04-07T03:30:53.676Z,99.90
2019-04-07T03:33:30.031Z,99.90
2019-04-07T03:36:20.038Z,99.90
2019-04-07T03:39:03.501Z,99.90
2019-04-07T03:41:39.932Z,99.90
2019-04-07T03:44:26.577Z,99.90
2019-04-07T03:47:14.338Z,99.90
2019-04-07T03:49:58.256Z,99.90
2019-04-07T03:52:34.112Z,99.90
2019-04-07T03:55:28.272Z,99.90
2019-04-07T03:58:30.983Z,99.90
2019-04-07T04:01:18.230Z,99.90
2019-04-07T04:03:53.556Z,99.90
2019-04-07T04:06:50.170Z,99.90
2019-04-07T04:09:24.170Z,99.90
2019-04-07T04:12:03.124Z,99.90
2019-04-07T04:14:50.832Z,99.90
2019-04-07T04:17:18.433Z,99.90
2019-04-07T04:19:46.619Z,99.90
2019-04-07T04:22:14.387Z,99.90
2019-04-07T04:24:42.247Z,99.90
2019-04-07T04:27:10.800Z,99.90
2019-04-07T04:29:39.320Z,99.90
2019-04-07T04:32:07.626Z,99.90
2019-04-07T04:34:35.605Z,99.90
2019-04-07T04:37:03.932Z,99.90
2019-04-07T04:39:31.515Z,99.90
2019-04-07T04:41:59.947Z,99.90
2019-04-07T04:44:28.334Z,99.90
2019-04-07T04:46:56.357Z,99.90
2019-04-07T04:49:23.911Z,99.90
2019-04-07T04:51:51.788Z,99.90
2019-04-07T04:54:19.587Z,99.90
2019-04-07T04:56:47.281Z,99.90
2019-04-07T04:59:14.892Z,99.90
2019-04-07T05:01:43.223Z,99.90
2019-04-07T05:04:10.535Z,99.90
2019-04-07T05:06:37.995Z,99.90
2019-04-07T05:09:05.746Z,99.90
2019-04-07T05:11:32.965Z,99.90
2019-04-07T05:14:00.420Z,99.90
2019-04-07T05:16:27.616Z,99.90
2019-04-07T05:18:55.367Z,99.90
2019-04-07T05:21:22.815Z,99.90
2019-04-07T05:23:50.266Z,99.90
2019-04-07T05:26:17.583Z,99.90
2019-04-07T05:28:45.050Z,99.90
2019-04-07T05:31:12.499Z,99.90
2019-04-07T05:33:39.992Z,99.90
2019-04-07T05:36:08.223Z,99.90
2019-04-07T05:38:36.687Z,99.90
2019-04-07T05:41:04.024Z,99.90
2019-04-07T05:43:31.553Z,99.90
2019-04-07T05:45:59.283Z,99.90
2019-04-07T05:48:26.795Z,99.90
2019-04-07T05:50:53.972Z,99.90
2019-04-07T05:53:21.174Z,99.90
2019-04-07T05:55:49.166Z,99.90
2019-04-07T05:58:16.679Z,99.90
2019-04-07T06:00:46.966Z,99.90
2019-04-07T06:03:13.417Z,99.90
2019-04-07T06:05:40.963Z,99.90
2019-04-07T06:08:22.467Z,99.90
2019-04-07T06:10:38.667Z,99.90
2019-04-07T06:13:05.971Z,99.90
2019-04-07T06:15:33.607Z,99.90
2019-04-07T06:18:01.515Z,99.90
2019-04-07T06:20:30.150Z,99.90
2019-04-07T06:22:57.626Z,99.90
2019-04-07T06:25:25.131Z,99.90
2019-04-07T06:27:53.171Z,99.90
2019-04-07T06:30:22.109Z,99.90
2019-04-07T06:32:49.503Z,99.90
2019-04-07T06:35:16.978Z,99.90
2019-04-07T06:37:44.287Z,99.90
2019-04-07T06:40:12.321Z,99.90
2019-04-07T06:42:40.478Z,99.90
2019-04-07T06:45:11.866Z,99.90
2019-04-07T06:47:43.367Z,99.90
2019-04-07T06:50:25.879Z,99.90
2019-04-07T06:53:05.536Z,99.90
2019-04-07T06:55:50.694Z,99.90
2019-04-07T06:58:41.723Z,99.90
2019-04-07T07:01:27.466Z,99.90
2019-04-07T07:04:13.167Z,99.90
2019-04-07T07:06:49.303Z,99.90
2019-04-07T07:09:25.843Z,99.90
2019-04-07T07:12:20.626Z,99.90
2019-04-07T07:15:03.438Z,99.90
2019-04-07T07:18:10.140Z,99.90
2019-04-07T07:20:58.032Z,99.90
2019-04-07T07:23:29.891Z,99.90
2019-04-07T07:26:00.957Z,99.90
2019-04-07T07:28:27.414Z,99.90
2019-04-07T07:30:54.755Z,99.90
2019-04-07T07:33:22.373Z,99.90
2019-04-07T07:35:50.619Z,99.90
2019-04-07T07:38:19.165Z,99.90
2019-04-07T07:40:47.702Z,99.90
2019-04-07T07:43:16.227Z,99.90
2019-04-07T07:45:47.056Z,99.90
2019-04-07T07:48:13.150Z,99.90
2019-04-07T07:50:40.725Z,99.90
2019-04-07T07:53:08.304Z,99.90
2019-04-07T07:55:37.639Z,99.90
2019-04-07T07:58:05.502Z,99.90
2019-04-07T08:00:40.026Z,99.90
2019-04-07T08:03:05.929Z,99.90
2019-04-07T08:05:33.598Z,99.90
2019-04-07T08:08:01.764Z,99.90
2019-04-07T08:10:29.128Z,99.90
2019-04-07T08:12:57.386Z,99.90
2019-04-07T08:15:29.705Z,99.90
2019-04-07T08:17:54.351Z,99.90
2019-04-07T08:20:22.049Z,99.90
2019-04-07T08:22:49.434Z,99.90
2019-04-07T08:25:20.383Z,99.90
2019-04-07T08:27:46.349Z,99.90
2019-04-07T08:30:14.021Z,99.90
2019-04-07T08:32:42.146Z,99.90
2019-04-07T08:35:09.975Z,99.90
2019-04-07T08:37:37.343Z,99.90
2019-04-07T08:40:07.719Z,99.90
2019-04-07T08:42:36.860Z,99.90
2019-04-07T08:45:04.676Z,99.90
2019-04-07T08:47:32.209Z,99.90
2019-04-07T08:49:59.845Z,99.90
2019-04-07T08:52:27.202Z,99.90
2019-04-07T08:54:54.470Z,99.90
2019-04-07T08:57:22.589Z,99.90
2019-04-07T08:59:50.766Z,99.90
2019-04-07T09:02:19.209Z,99.90
2019-04-07T09:04:50.942Z,99.90
2019-04-07T09:07:19.691Z,99.90
2019-04-07T09:09:49.243Z,99.90
2019-04-07T09:12:17.871Z,99.90
2019-04-07T09:14:45.689Z,99.90
2019-04-07T09:17:45.953Z,99.90
2019-04-07T09:20:33.735Z,99.90
2019-04-07T09:23:10.435Z,99.90
2019-04-07T09:26:12.435Z,99.90
2019-04-07T09:28:44.387Z,99.90
2019-04-07T09:31:31.567Z,99.70
2019-04-07T09:34:25.667Z,99.90
2019-04-07T09:37:02.277Z,99.90
2019-04-07T09:39:58.479Z,99.70
2019-04-07T09:42:29.071Z,99.30
2019-04-07T09:45:10.977Z,99.70
2019-04-07T09:47:56.455Z,97.90
2019-04-07T09:50:46.147Z,97.90
2019-04-07T09:53:29.564Z,97.50
2019-04-07T09:56:32.955Z,96.40
2019-04-07T09:59:10.067Z,98.10
2019-04-07T10:02:00.927Z,95.70
2019-04-07T10:04:42.594Z,95.30
2019-04-07T10:07:20.532Z,95.20
2019-04-07T10:10:10.303Z,94.80
2019-04-07T10:12:52.501Z,95.40
2019-04-07T10:15:32.824Z,94.60
2019-04-07T10:18:28.651Z,95.40
2019-04-07T10:21:07.255Z,93.90
2019-04-07T10:23:50.968Z,93.20
2019-04-07T10:26:28.951Z,94.40
2019-04-07T10:29:04.819Z,94.80
2019-04-07T10:31:45.329Z,94.70
2019-04-07T10:34:44.966Z,92.50
2019-04-07T10:37:30.280Z,93.50
2019-04-07T10:40:18.176Z,91.70
2019-04-07T10:42:57.720Z,90.70
2019-04-07T10:45:56.007Z,87.60
2019-04-07T10:48:34.301Z,87.70
2019-04-07T10:51:33.335Z,88.00
2019-04-07T10:54:15.667Z,90.70
2019-04-07T10:56:55.235Z,75.60
2019-04-07T10:59:53.265Z,80.90
2019-04-07T11:02:40.303Z,75.00
2019-04-07T11:05:26.407Z,66.80
2019-04-07T11:08:12.649Z,67.70
2019-04-07T11:11:16.914Z,71.30
2019-04-07T11:14:11.249Z,59.30
2019-04-07T11:16:52.565Z,62.00
2019-04-07T11:19:40.306Z,62.60
2019-04-07T11:22:36.971Z,60.30
2019-04-07T11:25:14.236Z,63.40
2019-04-07T11:28:08.635Z,62.50
2019-04-07T11:30:43.774Z,60.90
2019-04-07T11:33:42.826Z,64.00
2019-04-07T11:36:28.784Z,64.30
2019-04-07T11:39:27.532Z,57.60
2019-04-07T11:42:13.053Z,56.00
2019-04-07T11:44:54.271Z,53.20
2019-04-07T11:47:29.877Z,57.40
2019-04-07T11:50:06.642Z,54.80
2019-04-07T11:52:44.891Z,56.10
2019-04-07T11:55:30.054Z,55.10
2019-04-07T11:58:28.780Z,56.50
2019-04-07T12:01:15.560Z,55.10
2019-04-07T12:04:05.779Z,52.90
2019-04-07T12:06:56.407Z,56.00
2019-04-07T12:09:37.745Z,53.30
2019-04-07T12:12:16.939Z,51.80
2019-04-07T12:15:00.899Z,54.00
2019-04-07T12:17:51.299Z,51.80
2019-04-07T12:20:36.585Z,51.10
2019-04-07T12:23:27.906Z,51.60
2019-04-07T12:26:14.112Z,56.10
2019-04-07T12:29:03.549Z,51.20
2019-04-07T12:31:56.505Z,52.10
2019-04-07T12:34:47.774Z,52.90
2019-04-07T12:37:38.048Z,51.40
2019-04-07T12:40:18.247Z,51.00
2019-04-07T12:43:04.633Z,52.30
2019-04-07T12:45:46.645Z,51.40
2019-04-07T12:48:21.353Z,51.80
2019-04-07T12:51:14.927Z,52.20
2019-04-07T12:54:09.219Z,50.30
2019-04-07T12:57:02.553Z,50.80
2019-04-07T12:59:51.768Z,52.40
2019-04-07T13:02:25.870Z,52.00
2019-04-07T13:05:16.412Z,53.40
2019-04-07T13:07:55.509Z,51.90
2019-04-07T13:10:37.907Z,51.40
2019-04-07T13:13:32.504Z,53.00
2019-04-07T13:16:06.216Z,50.50
2019-04-07T13:19:09.294Z,50.50
2019-04-07T13:21:57.322Z,51.50
2019-04-07T13:24:51.658Z,52.90
2019-04-07T13:27:32.633Z,50.90
2019-04-07T13:30:24.587Z,50.90
2019-04-07T13:33:02.951Z,51.90
2019-04-07T13:35:36.997Z,54.20
2019-04-07T13:38:18.190Z,51.00
2019-04-07T13:41:18.608Z,52.40
2019-04-07T13:44:07.093Z,55.60
2019-04-07T13:46:48.996Z,54.90
2019-04-07T13:49:38.164Z,52.30
2019-04-07T13:52:34.404Z,53.50
2019-04-07T13:55:27.411Z,53.00
2019-04-07T13:58:26.169Z,50.50
2019-04-07T14:01:12.780Z,51.30
2019-04-07T14:04:15.600Z,54.10
2019-04-07T14:07:05.490Z,51.80
2019-04-07T14:09:43.118Z,50.70
2019-04-07T14:12:30.957Z,49.70
2019-04-07T14:15:14.321Z,50.50
2019-04-07T14:18:05.680Z,51.30
2019-04-07T14:20:51.442Z,49.70
2019-04-07T14:23:25.213Z,51.10
2019-04-07T14:26:10.266Z,51.90
2019-04-07T14:28:53.696Z,55.10
2019-04-07T14:31:42.313Z,56.70
2019-04-07T14:34:23.014Z,53.60
2019-04-07T14:37:07.434Z,56.30
2019-04-07T14:39:49.622Z,54.40
2019-04-07T14:42:38.263Z,56.20
2019-04-07T14:45:38.425Z,53.90
2019-04-07T14:48:34.797Z,52.50
2019-04-07T14:51:23.075Z,55.90
2019-04-07T14:54:02.808Z,54.10
2019-04-07T14:56:51.865Z,52.90
2019-04-07T14:59:53.916Z,53.40
2019-04-07T15:02:20.425Z,53.30
2019-04-07T15:04:52.101Z,53.10
2019-04-07T15:07:37.920Z,53.60
2019-04-07T15:10:16.904Z,54.00
2019-04-07T15:12:47.664Z,56.30
2019-04-07T15:15:14.846Z,54.70
2019-04-07T15:17:42.481Z,57.10
2019-04-07T15:20:12.831Z,57.80
2019-04-07T15:22:39.056Z,57.30
2019-04-07T15:25:07.634Z,57.80
2019-04-07T15:27:36.929Z,59.00
2019-04-07T15:30:04.490Z,55.50
2019-04-07T15:32:31.682Z,56.10
2019-04-07T15:34:59.005Z,54.90
2019-04-07T15:37:27.097Z,55.50
2019-04-07T15:39:54.593Z,56.70
2019-04-07T15:42:33.160Z,57.60
2019-04-07T15:44:51.960Z,56.30
2019-04-07T15:47:21.126Z,57.10
2019-04-07T15:49:49.561Z,59.00
2019-04-07T15:52:17.497Z,57.70
2019-04-07T15:54:44.803Z,57.50
2019-04-07T15:57:13.118Z,57.60
2019-04-07T15:59:42.400Z,56.10
2019-04-07T16:02:11.195Z,55.50
2019-04-07T16:04:39.138Z,57.80
2019-04-07T16:07:06.551Z,57.00
2019-04-07T16:09:41.985Z,56.90
2019-04-07T16:12:03.693Z,57.20
2019-04-07T16:14:32.056Z,58.80
2019-04-07T16:17:02.798Z,59.60
2019-04-07T16:19:37.681Z,58.40
2019-04-07T16:21:57.623Z,54.80
2019-04-07T16:24:25.690Z,53.60
2019-04-07T16:26:53.256Z,54.30
2019-04-07T16:29:21.223Z,56.50
2019-04-07T16:31:48.936Z,56.60
2019-04-07T16:34:16.567Z,57.30
2019-04-07T16:36:43.810Z,56.50
2019-04-07T16:39:11.471Z,55.70
2019-04-07T16:41:39.280Z,55.60
2019-04-07T16:44:09.289Z,56.20
2019-04-07T16:46:36.766Z,58.70
2019-04-07T16:49:04.529Z,59.30
2019-04-07T16:51:33.900Z,56.60
2019-04-07T16:54:02.418Z,56.20
2019-04-07T16:56:30.139Z,58.80
2019-04-07T16:58:57.351Z,59.00
2019-04-07T17:01:25.733Z,61.90
2019-04-07T17:03:54.283Z,61.70
2019-04-07T17:06:21.924Z,62.40
2019-04-07T17:08:51.515Z,60.20
2019-04-07T17:11:19.359Z,64.00
2019-04-07T17:13:47.215Z,66.60
2019-04-07T17:16:17.805Z,65.50
2019-04-07T17:18:44.144Z,67.60
2019-04-07T17:21:14.420Z,68.70
2019-04-07T17:23:42.863Z,71.10
2019-04-07T17:26:11.536Z,73.90
2019-04-07T17:28:39.996Z,74.10
2019-04-07T17:31:08.981Z,75.90
2019-04-07T17:33:37.946Z,76.70
2019-04-07T17:36:05.905Z,81.40
2019-04-07T17:38:41.245Z,82.50
2019-04-07T17:41:09.495Z,83.60
2019-04-07T17:43:56.832Z,84.00
2019-04-07T17:46:34.012Z,85.00
2019-04-07T17:49:34.377Z,87.00
2019-04-07T17:52:29.399Z,88.60
2019-04-07T17:55:34.285Z,89.40
2019-04-07T17:58:10.162Z,89.40
2019-04-07T18:01:08.917Z,89.50
2019-04-07T18:04:01.528Z,91.20
2019-04-07T18:07:06.377Z,91.50
2019-04-07T18:10:00.716Z,91.70
2019-04-07T18:13:01.567Z,91.60
2019-04-07T18:15:48.777Z,92.70
2019-04-07T18:18:38.260Z,92.00
2019-04-07T18:21:16.854Z,92.00
2019-04-07T18:24:03.517Z,92.50
2019-04-07T18:26:50.374Z,92.60
2019-04-07T18:29:30.991Z,93.20
2019-04-07T18:32:16.883Z,93.40
2019-04-07T18:35:22.647Z,93.50
2019-04-07T18:38:10.327Z,93.90
2019-04-07T18:40:51.067Z,94.30
2019-04-07T18:43:30.053Z,94.60
2019-04-07T18:46:11.603Z,94.90
2019-04-07T18:49:01.791Z,94.90
2019-04-07T18:51:44.552Z,95.70
2019-04-07T18:54:24.759Z,95.70
2019-04-07T18:57:10.496Z,95.80
2019-04-07T19:00:03.885Z,96.00
2019-04-07T19:02:44.330Z,96.30
2019-04-07T19:05:31.565Z,96.70
2019-04-07T19:08:19.462Z,96.90
2019-04-07T19:11:17.739Z,97.30
2019-04-07T19:14:38.012Z,97.60
2019-04-07T19:17:00.837Z,98.00
2019-04-07T19:19:48.456Z,98.20
2019-04-07T19:22:39.803Z,98.50
2019-04-07T19:25:30.352Z,98.60
2019-04-07T19:28:06.087Z,98.70
2019-04-07T19:30:43.627Z,98.80
2019-04-07T19:33:28.353Z,98.90
2019-04-07T19:36:16.768Z,99.00
2019-04-07T19:39:01.551Z,99.30
2019-04-07T19:41:48.944Z,99.70
2019-04-07T19:44:38.348Z,99.90
2019-04-07T19:47:12.062Z,99.90
2019-04-07T19:49:50.495Z,99.90
2019-04-07T19:52:37.108Z,99.90
2019-04-07T19:55:14.295Z,99.90
2019-04-07T19:58:17.619Z,99.90
2019-04-07T20:01:10.562Z,99.90
2019-04-07T20:03:52.119Z,99.90
2019-04-07T20:06:37.007Z,99.90
2019-04-07T20:09:23.666Z,99.90
2019-04-07T20:12:08.784Z,99.90
2019-04-07T20:15:12.048Z,99.90
2019-04-07T20:17:55.169Z,99.90
2019-04-07T20:20:33.648Z,99.90
2019-04-07T20:23:23.422Z,99.90
2019-04-07T20:26:21.494Z,99.90
2019-04-07T20:29:19.383Z,99.90
2019-04-07T20:32:07.129Z,99.90
2019-04-07T20:34:45.061Z,99.90
2019-04-07T20:37:19.031Z,99.90
2019-04-07T20:40:11.867Z,99.90
2019-04-07T20:43:05.115Z,99.90
2019-04-07T20:45:41.459Z,99.90
2019-04-07T20:48:25.706Z,99.90
2019-04-07T20:51:39.652Z,99.90
2019-04-07T20:54:31.542Z,99.90
2019-04-07T20:57:16.281Z,99.90
2019-04-07T21:00:02.353Z,99.90
2019-04-07T21:02:43.282Z,99.90
2019-04-07T21:05:30.775Z,99.90
2019-04-07T21:08:25.951Z,99.90
2019-04-07T21:11:19.286Z,99.90
2019-04-07T21:14:07.283Z,99.90
2019-04-07T21:16:46.523Z,99.90
2019-04-07T21:19:29.588Z,99.90
2019-04-07T21:22:22.852Z,99.90
2019-04-07T21:25:03.896Z,99.90
2019-04-07T21:28:00.113Z,99.90
2019-04-07T21:30:53.639Z,99.90
2019-04-07T21:33:32.428Z,99.90
2019-04-07T21:36:09.137Z,99.90
2019-04-07T21:38:43.614Z,99.90
2019-04-07T21:41:30.996Z,99.90
2019-04-07T21:44:33.685Z,99.90
2019-04-07T21:47:19.075Z,99.90
2019-04-07T21:50:05.453Z,99.90
2019-04-07T21:53:05.210Z,99.90
2019-04-07T21:55:49.775Z,99.90
2019-04-07T21:58:37.744Z,99.90
2019-04-07T22:01:18.700Z,99.90
2019-04-07T22:03:54.886Z,99.90
2019-04-07T22:06:48.743Z,99.90
2019-04-07T22:09:29.007Z,99.90
2019-04-07T22:11:57.988Z,99.90
2019-04-07T22:14:26.431Z,99.90
2019-04-07T22:16:54.669Z,99.90
2019-04-07T22:19:23.128Z,99.90
2019-04-07T22:21:53.297Z,99.90
2019-04-07T22:24:20.685Z,99.90
2019-04-07T22:26:50.153Z,99.90
2019-04-07T22:29:18.236Z,99.90
2019-04-07T22:31:49.345Z,99.90
2019-04-07T22:34:16.891Z,99.90
2019-04-07T22:36:47.027Z,99.90
2019-04-07T22:39:14.136Z,99.90
2019-04-07T22:41:42.900Z,99.90
2019-04-07T22:44:11.271Z,99.90
2019-04-07T22:46:39.548Z,99.90
2019-04-07T22:49:07.445Z,99.90
2019-04-07T22:51:34.698Z,99.90
2019-04-07T22:54:02.277Z,99.90
2019-04-07T22:56:29.853Z,99.90
2019-04-07T22:58:57.559Z,99.90
2019-04-07T23:01:25.114Z,99.90
2019-04-07T23:03:52.552Z,99.90
2019-04-07T23:06:20.876Z,99.90
2019-04-07T23:08:48.773Z,99.90
2019-04-07T23:11:16.307Z,99.90
2019-04-07T23:13:43.954Z,99.90
2019-04-07T23:16:15.784Z,99.90
2019-04-07T23:18:40.711Z,99.90
2019-04-07T23:21:08.237Z,99.90
2019-04-07T23:23:35.316Z,99.90
2019-04-07T23:26:02.527Z,99.90
2019-04-07T23:28:30.670Z,99.90
2019-04-07T23:30:59.037Z,99.90
2019-04-07T23:33:26.396Z,99.90
2019-04-07T23:35:54.115Z,99.90
2019-04-07T23:38:21.912Z,99.90
2019-04-07T23:40:49.449Z,99.90
2019-04-07T23:43:17.467Z,99.90
2019-04-07T23:45:44.967Z,99.90
2019-04-07T23:48:12.139Z,99.90
2019-04-07T23:50:39.326Z,99.90
2019-04-07T23:53:42.880Z,99.90
2019-04-07T23:56:10.162Z,99.90
2019-04-07T23:58:37.796Z,99.90
